createdAt,value
2018-07-20T00:00:15.105Z,6.40
2018-07-20T00:02:43.418Z,6.33
2018-07-20T00:05:11.702Z,6.10
2018-07-20T00:07:40.031Z,6.43
2018-07-20T00:10:08.773Z,5.67
2018-07-20T00:12:37.069Z,6.10
2018-07-20T00:15:05.353Z,6.30
2018-07-20T00:17:33.825Z,6.33
2018-07-20T00:20:02.123Z,7.07
2018-07-20T00:22:30.157Z,7.40
2018-07-20T00:24:58.489Z,7.30
2018-07-20T00:27:26.917Z,7.40
2018-07-20T00:29:54.937Z,7.27
2018-07-20T00:32:23.259Z,7.67
2018-07-20T00:34:51.545Z,6.90
2018-07-20T00:37:19.830Z,7.10
2018-07-20T00:39:47.893Z,7.67
2018-07-20T00:42:16.221Z,7.57
2018-07-20T00:44:44.521Z,7.67
2018-07-20T00:47:12.841Z,7.33
2018-07-20T00:49:41.134Z,8.17
2018-07-20T00:52:09.466Z,7.77
2018-07-20T00:54:37.802Z,8.30
2018-07-20T00:57:06.146Z,8.13
2018-07-20T00:59:34.443Z,8.40
2018-07-20T01:02:02.949Z,8.10
2018-07-20T01:04:31.241Z,8.80
2018-07-20T01:06:59.556Z,8.67
2018-07-20T01:09:28.283Z,9.30
2018-07-20T01:11:56.574Z,9.03
2018-07-20T01:14:24.845Z,8.47
2018-07-20T01:16:53.311Z,10.43
2018-07-20T01:19:21.581Z,8.77
2018-07-20T01:21:49.920Z,9.30
2018-07-20T01:24:18.373Z,8.70
2018-07-20T01:26:46.660Z,8.90
2018-07-20T01:29:15.006Z,8.60
2018-07-20T01:31:43.321Z,8.90
2018-07-20T01:34:11.605Z,9.13
2018-07-20T01:36:39.913Z,9.67
2018-07-20T01:39:09.420Z,9.83
2018-07-20T01:41:37.813Z,9.87
2018-07-20T01:44:06.093Z,9.90
2018-07-20T01:46:34.441Z,10.10
2018-07-20T01:49:02.480Z,10.47
2018-07-20T01:51:30.768Z,9.67
2018-07-20T01:53:59.087Z,10.37
2018-07-20T01:56:27.367Z,10.60
2018-07-20T01:58:55.432Z,10.40
2018-07-20T02:01:23.480Z,10.73
2018-07-20T02:03:51.860Z,11.63
2018-07-20T02:06:20.146Z,11.63
2018-07-20T02:08:48.585Z,11.30
2018-07-20T02:11:16.943Z,10.73
2018-07-20T02:13:45.348Z,11.70
2018-07-20T02:16:13.749Z,12.23
2018-07-20T02:18:42.053Z,10.73
2018-07-20T02:21:10.433Z,11.30
2018-07-20T02:23:38.871Z,10.50
2018-07-20T02:26:07.166Z,11.30
2018-07-20T02:28:35.449Z,11.00
2018-07-20T02:31:04.285Z,10.83
2018-07-20T02:33:32.568Z,10.83
2018-07-20T02:36:00.921Z,11.63
2018-07-20T02:38:29.228Z,11.27
2018-07-20T02:40:57.523Z,11.17
2018-07-20T02:43:25.866Z,10.70
2018-07-20T02:45:54.237Z,10.30
2018-07-20T02:48:22.557Z,10.63
2018-07-20T02:50:50.847Z,10.40
2018-07-20T02:53:19.335Z,10.60
2018-07-20T02:55:47.706Z,9.57
2018-07-20T02:58:16.106Z,9.43
2018-07-20T03:00:44.595Z,9.47
2018-07-20T03:03:12.661Z,9.60
2018-07-20T03:05:41.473Z,10.50
2018-07-20T03:08:09.874Z,9.80
2018-07-20T03:10:38.153Z,9.60
2018-07-20T03:13:06.873Z,10.80
2018-07-20T03:15:35.180Z,10.37
2018-07-20T03:18:03.475Z,10.50
2018-07-20T03:20:31.757Z,11.03
2018-07-20T03:23:00.212Z,10.70
2018-07-20T03:25:28.529Z,10.73
2018-07-20T03:27:56.809Z,10.00
2018-07-20T03:30:25.700Z,9.87
2018-07-20T03:32:54.021Z,10.00
2018-07-20T03:35:22.301Z,10.93
2018-07-20T03:37:50.689Z,10.77
2018-07-20T03:40:18.986Z,11.17
2018-07-20T03:42:47.019Z,11.67
2018-07-20T03:45:15.441Z,10.83
2018-07-20T03:47:43.725Z,11.67
2018-07-20T03:50:12.026Z,12.13
2018-07-20T03:52:40.345Z,12.27
2018-07-20T03:55:08.641Z,11.70
2018-07-20T03:57:36.921Z,11.93
2018-07-20T04:00:06.261Z,11.63
2018-07-20T04:02:34.881Z,12.80
2018-07-20T04:05:03.198Z,13.03
2018-07-20T04:07:31.641Z,13.23
2018-07-20T04:09:59.957Z,13.03
2018-07-20T04:12:28.268Z,13.47
2018-07-20T04:14:56.597Z,13.93
2018-07-20T04:17:24.652Z,13.47
2018-07-20T04:19:53.526Z,12.73
2018-07-20T04:22:23.625Z,14.40
2018-07-20T04:24:51.905Z,12.50
2018-07-20T04:27:22.859Z,14.47
2018-07-20T04:29:51.558Z,14.20
2018-07-20T04:32:21.868Z,14.10
2018-07-20T04:34:50.281Z,14.23
2018-07-20T04:37:18.696Z,13.87
2018-07-20T04:39:46.973Z,14.23
2018-07-20T04:42:15.262Z,14.20
2018-07-20T04:44:43.577Z,13.53
2018-07-20T04:47:11.901Z,15.00
2018-07-20T04:49:40.357Z,14.73
2018-07-20T04:52:08.930Z,14.83
2018-07-20T04:54:37.373Z,15.27
2018-07-20T04:57:05.983Z,15.37
2018-07-20T04:59:34.737Z,14.50
2018-07-20T05:02:03.070Z,14.63
2018-07-20T05:04:31.701Z,16.33
2018-07-20T05:07:00.052Z,15.23
2018-07-20T05:09:28.636Z,15.93
2018-07-20T05:11:56.941Z,16.23
2018-07-20T05:14:25.726Z,15.93
2018-07-20T05:16:54.078Z,14.57
2018-07-20T05:19:22.406Z,14.97
2018-07-20T05:21:50.880Z,15.73
2018-07-20T05:24:19.185Z,15.17
2018-07-20T05:26:47.510Z,16.60
2018-07-20T05:29:15.941Z,16.37
2018-07-20T05:31:44.261Z,16.03
2018-07-20T05:34:12.854Z,15.73
2018-07-20T05:36:41.173Z,14.23
2018-07-20T05:39:10.397Z,14.63
2018-07-20T05:41:38.444Z,15.53
2018-07-20T05:44:06.875Z,15.00
2018-07-20T05:46:36.097Z,15.33
2018-07-20T05:49:04.461Z,14.60
2018-07-20T05:51:33.053Z,12.40
2018-07-20T05:54:04.895Z,14.63
2018-07-20T05:56:34.567Z,13.63
2018-07-20T05:59:02.919Z,13.47
2018-07-20T06:01:32.833Z,14.10
2018-07-20T06:04:01.582Z,13.90
2018-07-20T06:06:29.636Z,13.00
2018-07-20T06:08:57.969Z,13.23
2018-07-20T06:11:26.916Z,12.90
2018-07-20T06:13:55.237Z,12.73
2018-07-20T06:16:23.575Z,12.27
2018-07-20T06:18:51.982Z,12.40
2018-07-20T06:21:20.329Z,13.03
2018-07-20T06:23:48.684Z,12.07
2018-07-20T06:26:17.087Z,12.43
2018-07-20T06:28:46.055Z,12.63
2018-07-20T06:31:15.541Z,11.80
2018-07-20T06:33:44.373Z,12.13
2018-07-20T06:36:13.389Z,11.23
2018-07-20T06:38:42.111Z,11.50
2018-07-20T06:41:10.774Z,11.90
2018-07-20T06:43:39.128Z,12.50
2018-07-20T06:46:07.752Z,12.23
2018-07-20T06:48:36.719Z,11.13
2018-07-20T06:51:05.552Z,11.57
2018-07-20T06:53:34.385Z,12.53
2018-07-20T06:56:02.809Z,11.80
2018-07-20T06:58:31.126Z,11.80
2018-07-20T07:00:59.465Z,10.37
2018-07-20T07:03:27.845Z,11.20
2018-07-20T07:05:56.213Z,11.47
2018-07-20T07:08:25.458Z,10.83
2018-07-20T07:10:53.845Z,11.83
2018-07-20T07:13:22.585Z,11.43
2018-07-20T07:15:50.925Z,11.20
2018-07-20T07:18:19.345Z,10.57
2018-07-20T07:20:47.641Z,11.40
2018-07-20T07:23:16.185Z,10.53
2018-07-20T07:25:44.777Z,10.73
2018-07-20T07:28:13.052Z,11.33
2018-07-20T07:30:41.330Z,9.90
2018-07-20T07:33:09.758Z,10.53
2018-07-20T07:35:38.025Z,11.47
2018-07-20T07:38:06.310Z,10.33
2018-07-20T07:40:34.709Z,10.77
2018-07-20T07:43:03.021Z,10.40
2018-07-20T07:45:31.307Z,10.20
2018-07-20T07:47:59.789Z,10.57
2018-07-20T07:50:28.107Z,10.43
2018-07-20T07:52:56.471Z,11.40
2018-07-20T07:55:24.973Z,10.53
2018-07-20T07:57:53.365Z,9.77
2018-07-20T08:00:21.766Z,9.73
2018-07-20T08:02:50.304Z,10.20
2018-07-20T08:05:18.571Z,9.23
2018-07-20T08:07:46.905Z,9.50
2018-07-20T08:10:15.248Z,10.87
2018-07-20T08:12:43.517Z,10.77
2018-07-20T08:15:11.849Z,10.27
2018-07-20T08:17:40.168Z,10.10
2018-07-20T08:20:08.489Z,8.73
2018-07-20T08:22:36.789Z,9.33
2018-07-20T08:25:05.093Z,9.50
2018-07-20T08:27:33.376Z,9.27
2018-07-20T08:30:01.648Z,9.33
2018-07-20T08:32:30.037Z,9.40
2018-07-20T08:34:58.319Z,7.97
2018-07-20T08:37:26.661Z,9.87
2018-07-20T08:39:55.225Z,8.60
2018-07-20T08:42:23.516Z,8.27
2018-07-20T08:44:51.817Z,8.67
2018-07-20T08:47:20.181Z,8.40
2018-07-20T08:49:48.480Z,8.50
2018-07-20T08:52:16.757Z,7.73
2018-07-20T08:54:45.394Z,7.77
2018-07-20T08:57:13.657Z,7.37
2018-07-20T08:59:42.024Z,7.57
2018-07-20T09:02:10.369Z,8.13
2018-07-20T09:04:38.693Z,7.67
2018-07-20T09:07:06.993Z,7.37
2018-07-20T09:09:35.313Z,7.73
2018-07-20T09:12:03.710Z,6.57
2018-07-20T09:14:32.026Z,6.97
2018-07-20T09:17:00.433Z,8.20
2018-07-20T09:19:28.745Z,7.20
2018-07-20T09:21:57.041Z,7.53
2018-07-20T09:24:25.589Z,6.77
2018-07-20T09:26:53.890Z,6.80
2018-07-20T09:29:21.964Z,6.40
2018-07-20T09:31:50.786Z,6.33
2018-07-20T09:34:19.084Z,6.17
2018-07-20T09:36:47.389Z,7.17
2018-07-20T09:39:15.749Z,6.33
2018-07-20T09:41:44.545Z,5.53
2018-07-20T09:44:13.239Z,6.10
2018-07-20T09:46:41.698Z,6.13
2018-07-20T09:49:10.047Z,6.13
2018-07-20T09:51:38.373Z,5.97
2018-07-20T09:54:06.741Z,6.70
2018-07-20T09:56:35.058Z,6.50
2018-07-20T09:59:03.377Z,6.70
2018-07-20T10:01:31.985Z,5.73
2018-07-20T10:04:00.284Z,6.40
2018-07-20T10:06:29.225Z,5.53
2018-07-20T10:08:57.594Z,6.53
2018-07-20T10:11:25.910Z,5.80
2018-07-20T10:13:54.357Z,5.60
2018-07-20T10:16:22.431Z,6.53
2018-07-20T10:18:50.929Z,6.17
2018-07-20T10:21:19.241Z,5.73
2018-07-20T10:23:47.616Z,5.90
2018-07-20T10:26:15.905Z,5.33
2018-07-20T10:28:43.937Z,5.40
2018-07-20T10:31:12.316Z,6.77
2018-07-20T10:33:41.350Z,5.80
2018-07-20T10:36:09.645Z,5.73
2018-07-20T10:38:37.969Z,6.00
2018-07-20T10:41:06.513Z,5.90
2018-07-20T10:43:34.823Z,5.40
2018-07-20T10:46:03.261Z,5.63
2018-07-20T10:48:31.452Z,5.70
2018-07-20T10:50:59.759Z,4.57
2018-07-20T10:53:28.228Z,5.87
2018-07-20T10:55:56.629Z,6.17
2018-07-20T10:58:24.949Z,4.50
2018-07-20T11:00:54.521Z,4.80
2018-07-20T11:03:24.625Z,4.73
2018-07-20T11:05:55.456Z,4.80
2018-07-20T11:08:25.021Z,5.30
2018-07-20T11:10:53.395Z,5.00
2018-07-20T11:13:22.009Z,4.23
2018-07-20T11:15:50.301Z,5.17
2018-07-20T11:18:18.618Z,4.20
2018-07-20T11:20:47.061Z,5.03
2018-07-20T11:23:15.378Z,4.70
2018-07-20T11:25:43.708Z,4.90
2018-07-20T11:28:12.137Z,4.97
2018-07-20T11:30:40.458Z,3.73
2018-07-20T11:33:08.777Z,4.07
2018-07-20T11:35:37.277Z,3.97
2018-07-20T11:38:05.581Z,4.80
2018-07-20T11:40:33.917Z,3.90
2018-07-20T11:43:02.274Z,3.83
2018-07-20T11:45:30.583Z,4.40
2018-07-20T11:47:59.007Z,3.20
2018-07-20T11:50:27.509Z,4.30
2018-07-20T11:52:55.849Z,4.23
2018-07-20T11:55:24.218Z,3.70
2018-07-20T11:57:52.601Z,4.47
2018-07-20T12:00:20.949Z,4.77
2018-07-20T12:02:49.477Z,4.10
2018-07-20T12:05:17.789Z,4.33
2018-07-20T12:07:46.166Z,4.97
2018-07-20T12:10:14.521Z,3.70
2018-07-20T12:12:42.877Z,4.30
2018-07-20T12:15:11.273Z,3.20
2018-07-20T12:17:39.601Z,3.80
2018-07-20T12:20:08.017Z,3.90
2018-07-20T12:22:36.501Z,4.27
2018-07-20T12:25:05.042Z,3.57
2018-07-20T12:27:33.565Z,3.40
2018-07-20T12:30:02.025Z,4.23
2018-07-20T12:32:30.329Z,4.40
2018-07-20T12:34:58.661Z,4.20
2018-07-20T12:37:27.005Z,4.60
2018-07-20T12:39:55.317Z,3.40
2018-07-20T12:42:24.079Z,4.00
2018-07-20T12:44:52.368Z,3.67
2018-07-20T12:47:20.673Z,3.97
2018-07-20T12:49:49.090Z,3.80
2018-07-20T12:52:17.434Z,4.30
2018-07-20T12:54:45.775Z,3.57
2018-07-20T12:57:14.633Z,3.73
2018-07-20T12:59:42.935Z,4.00
2018-07-20T13:02:11.252Z,3.83
2018-07-20T13:04:40.373Z,3.70
2018-07-20T13:07:08.833Z,3.80
2018-07-20T13:09:37.189Z,3.53
2018-07-20T13:12:06.353Z,4.00
2018-07-20T13:14:34.941Z,4.37
2018-07-20T13:17:03.549Z,4.60
2018-07-20T13:19:31.989Z,4.00
2018-07-20T13:22:00.605Z,3.80
2018-07-20T13:24:30.029Z,3.37
2018-07-20T13:26:58.385Z,3.40
2018-07-20T13:29:28.458Z,3.67
2018-07-20T13:31:56.785Z,3.67
2018-07-20T13:34:25.133Z,3.83
2018-07-20T13:36:53.469Z,4.03
2018-07-20T13:39:21.781Z,3.90
2018-07-20T13:41:49.856Z,3.47
2018-07-20T13:44:18.157Z,3.70
2018-07-20T13:46:46.647Z,3.70
2018-07-20T13:49:14.986Z,3.60
2018-07-20T13:51:43.053Z,3.50
2018-07-20T13:54:11.355Z,3.20
2018-07-20T13:56:39.709Z,3.83
2018-07-20T13:59:08.041Z,3.50
2018-07-20T14:01:36.361Z,3.50
2018-07-20T14:04:04.714Z,3.53
2018-07-20T14:06:32.998Z,3.40
2018-07-20T14:09:01.357Z,3.10
2018-07-20T14:11:29.717Z,3.20
2018-07-20T14:13:58.006Z,3.63
2018-07-20T14:16:26.281Z,3.00
2018-07-20T14:18:54.622Z,3.13
2018-07-20T14:21:22.661Z,3.30
2018-07-20T14:23:50.994Z,3.67
2018-07-20T14:26:20.519Z,3.43
2018-07-20T14:28:48.827Z,3.43
2018-07-20T14:31:17.269Z,3.80
2018-07-20T14:33:45.692Z,3.67
2018-07-20T14:36:14.019Z,3.10
2018-07-20T14:38:42.309Z,3.27
2018-07-20T14:41:10.965Z,3.63
2018-07-20T14:43:39.298Z,3.60
2018-07-20T14:46:07.702Z,3.73
2018-07-20T14:48:36.393Z,3.10
2018-07-20T14:51:05.179Z,3.50
2018-07-20T14:53:33.417Z,3.20
2018-07-20T14:56:01.842Z,3.47
2018-07-20T14:58:30.137Z,3.47
2018-07-20T15:00:58.458Z,3.27
2018-07-20T15:03:26.789Z,3.57
2018-07-20T15:05:55.082Z,2.63
2018-07-20T15:08:23.362Z,3.23
2018-07-20T15:10:51.902Z,3.30
2018-07-20T15:13:20.239Z,3.30
2018-07-20T15:15:48.537Z,3.03
2018-07-20T15:18:17.026Z,2.87
2018-07-20T15:20:45.371Z,2.97
2018-07-20T15:23:13.697Z,3.07
2018-07-20T15:25:42.965Z,3.40
2018-07-20T15:28:11.369Z,2.90
2018-07-20T15:30:39.751Z,3.03
2018-07-20T15:33:08.193Z,3.20
2018-07-20T15:35:36.473Z,3.00
2018-07-20T15:38:04.825Z,3.00
2018-07-20T15:40:33.150Z,3.33
2018-07-20T15:43:01.461Z,3.33
2018-07-20T15:45:29.749Z,3.10
2018-07-20T15:47:58.073Z,3.30
2018-07-20T15:50:26.405Z,3.10
2018-07-20T15:53:36.266Z,3.60
2018-07-20T15:55:23.650Z,3.30
2018-07-20T15:57:52.359Z,3.20
2018-07-20T16:00:20.689Z,2.87
2018-07-20T16:02:49.145Z,3.40
2018-07-20T16:05:17.415Z,3.30
2018-07-20T16:07:45.753Z,2.70
2018-07-20T16:10:14.150Z,2.60
2018-07-20T16:12:42.464Z,2.77
2018-07-20T16:15:10.757Z,2.90
2018-07-20T16:17:39.077Z,3.50
2018-07-20T16:20:07.377Z,3.30
2018-07-20T16:22:35.655Z,2.93
2018-07-20T16:25:04.233Z,2.90
2018-07-20T16:27:32.497Z,3.10
2018-07-20T16:30:00.609Z,3.10
2018-07-20T16:32:28.884Z,3.53
2018-07-20T16:34:57.157Z,3.03
2018-07-20T16:37:25.406Z,2.90
2018-07-20T16:39:54.026Z,2.80
2018-07-20T16:42:22.293Z,2.73
2018-07-20T16:44:50.796Z,2.60
2018-07-20T16:47:19.126Z,2.73
2018-07-20T16:49:47.356Z,2.80
2018-07-20T16:52:15.605Z,2.80
2018-07-20T16:54:43.984Z,2.63
2018-07-20T16:57:12.278Z,2.60
2018-07-20T16:59:40.578Z,2.60
2018-07-20T17:02:08.992Z,2.80
2018-07-20T17:04:37.265Z,2.77
2018-07-20T17:07:05.307Z,2.70
2018-07-20T17:09:33.613Z,2.50
2018-07-20T17:12:01.977Z,3.27
2018-07-20T17:14:30.249Z,2.50
2018-07-20T17:16:58.538Z,2.50
2018-07-20T17:19:26.833Z,2.70
2018-07-20T17:21:55.149Z,2.67
2018-07-20T17:24:23.484Z,2.90
2018-07-20T17:26:52.049Z,2.73
2018-07-20T17:29:20.086Z,2.73
2018-07-20T17:31:48.464Z,2.83
2018-07-20T17:34:19.637Z,2.57
2018-07-20T17:36:48.938Z,2.60
2018-07-20T17:39:17.452Z,2.43
2018-07-20T17:41:45.797Z,1.57
2018-07-20T17:44:14.243Z,1.27
2018-07-20T17:46:42.525Z,0.40
2018-07-20T17:49:10.813Z,0.80
2018-07-20T17:51:39.494Z,0.53
2018-07-20T17:54:07.798Z,0.17
2018-07-20T17:56:36.112Z,0.50
2018-07-20T17:59:04.465Z,0.57
2018-07-20T18:01:32.729Z,0.20
2018-07-20T18:04:01.012Z,0.40
2018-07-20T18:06:29.337Z,0.30
2018-07-20T18:08:57.625Z,0.40
2018-07-20T18:11:25.921Z,0.27
2018-07-20T18:13:54.232Z,0.20
2018-07-20T18:16:22.597Z,0.57
2018-07-20T18:18:50.937Z,1.50
2018-07-20T18:21:19.476Z,0.93
2018-07-20T18:23:47.848Z,0.40
2018-07-20T18:26:15.894Z,0.30
2018-07-20T18:28:44.545Z,0.40
2018-07-20T18:31:12.973Z,0.37
2018-07-20T18:33:41.396Z,0.30
2018-07-20T18:36:09.399Z,0.37
2018-07-20T18:38:37.681Z,0.20
2018-07-20T18:41:05.968Z,0.33
2018-07-20T18:43:34.267Z,0.80
2018-07-20T18:46:02.556Z,0.40
2018-07-20T18:48:30.846Z,0.20
2018-07-20T18:50:59.300Z,0.50
2018-07-20T18:53:27.615Z,0.50
2018-07-20T18:55:55.916Z,0.20
2018-07-20T18:58:24.389Z,0.50
2018-07-20T19:00:52.679Z,0.23
2018-07-20T19:03:20.963Z,0.37
2018-07-20T19:05:49.437Z,0.33
2018-07-20T19:08:17.742Z,0.70
2018-07-20T19:10:46.025Z,0.40
2018-07-20T19:13:14.350Z,0.30
2018-07-20T19:15:42.647Z,0.20
2018-07-20T19:18:10.922Z,0.43
2018-07-20T19:20:39.268Z,0.30
2018-07-20T19:23:07.592Z,0.27
2018-07-20T19:25:35.913Z,0.40
2018-07-20T19:28:04.406Z,0.30
2018-07-20T19:30:32.721Z,0.37
2018-07-20T19:33:00.994Z,0.40
2018-07-20T19:35:29.546Z,0.10
2018-07-20T19:37:57.849Z,1.07
2018-07-20T19:40:26.214Z,0.17
2018-07-20T19:42:54.458Z,0.40
2018-07-20T19:45:22.790Z,0.27
2018-07-20T19:47:51.149Z,0.20
2018-07-20T19:50:19.605Z,0.20
2018-07-20T19:52:47.878Z,0.23
2018-07-20T19:55:16.154Z,0.50
2018-07-20T19:57:44.549Z,0.23
2018-07-20T20:00:12.821Z,0.70
2018-07-20T20:02:41.107Z,0.30
2018-07-20T20:05:09.164Z,0.20
2018-07-20T20:07:37.529Z,0.20
2018-07-20T20:10:06.408Z,0.20
2018-07-20T20:12:34.977Z,0.63
2018-07-20T20:15:04.099Z,0.30
2018-07-20T20:17:32.454Z,0.20
2018-07-20T20:20:01.131Z,0.10
2018-07-20T20:22:29.417Z,0.10
2018-07-20T20:24:58.425Z,0.20
2018-07-20T20:27:27.288Z,0.17
2018-07-20T20:29:55.574Z,0.30
2018-07-20T20:32:23.938Z,0.93
2018-07-20T20:34:52.265Z,0.47
2018-07-20T20:37:20.469Z,0.20
2018-07-20T20:39:48.794Z,0.62
2018-07-20T20:42:17.318Z,0.53
2018-07-20T20:44:45.637Z,1.00
2018-07-20T20:47:13.953Z,0.40
2018-07-20T20:49:42.297Z,0.30
2018-07-20T20:52:10.590Z,0.70
2018-07-20T20:54:38.929Z,0.40
2018-07-20T20:57:07.621Z,0.30
2018-07-20T20:59:35.938Z,0.10
2018-07-20T21:02:04.280Z,0.30
2018-07-20T21:04:32.793Z,0.30
2018-07-20T21:07:01.114Z,0.50
2018-07-20T21:09:29.457Z,0.30
2018-07-20T21:11:57.873Z,0.57
2018-07-20T21:14:26.157Z,0.40
2018-07-20T21:16:54.542Z,0.63
2018-07-20T21:19:22.932Z,0.20
2018-07-20T21:21:51.246Z,0.20
2018-07-20T21:24:19.625Z,0.30
2018-07-20T21:26:47.969Z,0.43
2018-07-20T21:29:16.277Z,0.60
2018-07-20T21:31:44.610Z,0.53
2018-07-20T21:34:13.006Z,0.20
2018-07-20T21:36:41.308Z,0.20
2018-07-20T21:39:11.710Z,0.27
2018-07-20T21:41:40.558Z,0.10
2018-07-20T21:44:08.914Z,0.30
2018-07-20T21:46:37.365Z,0.43
2018-07-20T21:49:05.700Z,0.53
2018-07-20T21:51:34.030Z,0.27
2018-07-20T21:54:02.354Z,0.50
